Time;durP1;ratioP1;P1;durP2;ratioP2;P2;SDS_P1;SDS_P2;PMS_P1;PMS_P2;Temp;Humidity;BMP_temperature;BMP_pressure;BME280_temperature;BME280_humidity;BME280_pressure;Samples;Min_cycle;Max_cycle;Signal;HPM_P1;HPM_P2
2023/07/24 00:04:13;;;;;;;6.10;3.60;;;;;;;19.13;63.95;98466.94;273812;1268;23744;-78
2023/07/24 00:10:15;;;;;;;7.00;3.80;;;;;;;19.10;64.10;98458.39;273687;1260;22493;-78
2023/07/24 00:16:17;;;;;;;4.60;3.40;;;;;;;19.04;64.59;98457.27;273832;1268;22203;-78
2023/07/24 00:22:18;;;;;;;6.50;3.90;;;;;;;18.96;65.02;98455.83;273878;1269;22388;-78
2023/07/24 00:28:20;;;;;;;6.80;3.30;;;;;;;18.94;65.05;98450.19;273829;1269;23005;-78
2023/07/24 00:34:22;;;;;;;6.70;3.50;;;;;;;18.90;65.51;98444.05;273732;1269;23162;-78
2023/07/24 00:40:23;;;;;;;6.60;3.50;;;;;;;18.88;66.10;98442.45;273876;1270;22434;-78
2023/07/24 00:46:25;;;;;;;7.20;3.20;;;;;;;18.80;67.02;98440.55;273819;1270;22398;-78
2023/07/24 00:52:28;;;;;;;6.20;3.60;;;;;;;18.78;67.27;98438.34;273772;1269;22968;-78
2023/07/24 00:58:30;;;;;;;7.20;4.20;;;;;;;18.77;67.34;98436.14;273614;1269;23185;-77
2023/07/24 01:04:54;;;;;;;7.70;3.50;;;;;;;18.74;67.63;98439.95;273689;1269;22454;-78
2023/07/24 01:10:59;;;;;;;5.00;3.10;;;;;;;18.73;68.11;98442.42;273844;1269;23969;-78
2023/07/24 01:17:23;;;;;;;6.10;3.90;;;;;;;18.74;68.92;98439.61;273672;1269;22466;-78
2023/07/24 01:23:48;;;;;;;6.10;3.50;;;;;;;18.70;69.12;98440.86;273844;1258;23732;-78
2023/07/24 01:29:49;;;;;;;6.10;3.90;;;;;;;18.69;69.44;98438.04;273812;1269;22407;-78
2023/07/24 01:36:00;;;;;;;4.40;2.90;;;;;;;18.72;69.99;98430.96;273825;1269;22373;-77
2023/07/24 01:42:02;;;;;;;5.70;3.40;;;;;;;18.73;70.17;98425.33;273415;1260;22415;-81
2023/07/24 01:48:05;;;;;;;4.90;3.30;;;;;;;18.78;70.10;98417.02;273248;1268;22548;-78
2023/07/24 01:54:08;;;;;;;5.70;3.40;;;;;;;18.96;70.09;98410.11;273858;1270;22434;-78
2023/07/24 02:00:11;;;;;;;5.60;3.30;;;;;;;19.46;69.62;98410.63;273813;1273;22485;-77
2023/07/24 02:06:12;;;;;;;5.50;3.80;;;;;;;19.74;68.90;98416.30;273668;1268;23417;-78
2023/07/24 02:12:14;;;;;;;5.50;3.40;;;;;;;19.85;68.29;98418.29;273795;1269;23571;-78
2023/07/24 02:18:16;;;;;;;7.10;3.50;;;;;;;20.00;67.83;98418.96;273798;1268;22443;-78
2023/07/24 02:24:20;;;;;;;6.00;3.60;;;;;;;20.14;67.52;98425.45;273735;1269;22379;-80
2023/07/24 02:30:21;;;;;;;6.50;3.50;;;;;;;20.23;67.27;98424.98;273695;1269;23296;-77
2023/07/24 02:36:23;;;;;;;5.10;3.30;;;;;;;20.25;67.33;98430.33;273832;1269;22613;-78
2023/07/24 02:42:25;;;;;;;6.60;3.90;;;;;;;20.20;67.84;98434.15;273867;1257;22346;-77
2023/07/24 02:48:27;;;;;;;6.00;3.70;;;;;;;20.09;67.62;98426.76;273813;1270;24520;-80
2023/07/24 02:54:28;;;;;;;7.80;4.20;;;;;;;20.00;68.00;98426.27;273652;1270;22368;-77
2023/07/24 03:00:31;;;;;;;5.60;3.10;;;;;;;20.11;68.14;98425.55;273756;1269;22848;-78
2023/07/24 03:06:33;;;;;;;6.60;3.80;;;;;;;20.17;68.56;98423.70;272792;1269;22388;-79
2023/07/24 03:12:35;;;;;;;7.50;3.10;;;;;;;20.14;69.40;98421.57;273862;1270;22171;-78
2023/07/24 03:18:41;;;;;;;5.30;3.50;;;;;;;20.06;69.58;98418.27;273638;1270;258004;-79
2023/07/24 03:24:43;;;;;;;6.80;3.30;;;;;;;20.00;70.03;98411.89;273597;1269;23365;-78
2023/07/24 03:30:45;;;;;;;6.20;4.10;;;;;;;19.95;70.68;98414.55;271769;1260;22534;-78
2023/07/24 03:36:47;;;;;;;5.30;3.70;;;;;;;19.89;71.05;98415.88;270514;1267;22395;-78
2023/07/24 03:42:48;;;;;;;5.50;3.70;;;;;;;19.81;71.53;98418.61;271428;1269;23750;-78
2023/07/24 03:48:50;;;;;;;5.60;3.60;;;;;;;19.72;72.30;98414.09;271802;1270;22231;-79
2023/07/24 03:54:52;;;;;;;8.20;4.80;;;;;;;19.62;72.75;98411.66;273551;1269;22404;-78
2023/07/24 04:00:54;;;;;;;7.30;4.10;;;;;;;19.53;73.78;98420.52;273703;1269;23242;-79
2023/07/24 04:06:55;;;;;;;6.00;4.00;;;;;;;19.41;74.37;98416.67;273433;1269;22361;-78
2023/07/24 04:12:58;;;;;;;9.30;4.30;;;;;;;19.31;75.48;98415.64;273905;1257;22367;-79
2023/07/24 04:19:00;;;;;;;7.00;4.90;;;;;;;19.23;76.89;98419.45;273749;1270;22264;-79
2023/07/24 04:25:02;;;;;;;7.00;4.10;;;;;;;19.23;78.56;98426.59;273776;1257;22391;-79
2023/07/24 04:31:04;;;;;;;8.90;4.40;;;;;;;19.25;78.97;98428.41;273648;1268;22995;-78
2023/07/24 04:37:06;;;;;;;5.50;4.10;;;;;;;19.31;79.78;98424.91;273498;1257;22363;-78
2023/07/24 04:43:07;;;;;;;6.50;4.60;;;;;;;19.38;80.19;98426.35;273791;1260;23187;-78
2023/07/24 04:49:09;;;;;;;6.60;4.80;;;;;;;19.48;80.20;98424.91;273850;1257;22183;-78
2023/07/24 04:55:11;;;;;;;6.50;4.50;;;;;;;19.67;80.70;98425.30;273834;1257;22319;-80
2023/07/24 05:01:12;;;;;;;6.40;3.80;;;;;;;19.99;80.67;98415.59;273713;1268;22408;-79
2023/07/24 05:07:14;;;;;;;5.60;4.10;;;;;;;20.57;79.94;98412.20;273855;1269;22176;-79
2023/07/24 05:13:16;;;;;;;7.10;4.30;;;;;;;21.07;79.10;98414.32;273839;1268;23116;-78
2023/07/24 05:19:18;;;;;;;8.20;4.20;;;;;;;21.44;78.51;98416.02;273548;1267;23604;-78
2023/07/24 05:25:20;;;;;;;6.90;4.30;;;;;;;21.83;77.97;98416.16;273773;1269;22390;-80
2023/07/24 05:31:21;;;;;;;11.80;5.10;;;;;;;22.12;77.18;98411.27;273813;1269;22784;-78
2023/07/24 05:37:23;;;;;;;8.70;4.90;;;;;;;22.43;76.58;98412.34;273517;1269;22407;-79
2023/07/24 05:43:27;;;;;;;8.40;4.60;;;;;;;22.69;76.18;98412.90;273692;1269;22603;-80
2023/07/24 05:49:33;;;;;;;12.40;5.00;;;;;;;22.85;75.79;98416.09;273604;1267;22179;-79
2023/07/24 05:55:35;;;;;;;8.00;4.20;;;;;;;23.00;75.70;98414.58;273736;1258;22567;-78
2023/07/24 06:01:37;;;;;;;7.40;4.50;;;;;;;23.15;75.60;98415.95;273554;1268;22402;-80
2023/07/24 06:07:39;;;;;;;6.80;4.20;;;;;;;23.27;75.67;98418.89;273468;1269;22226;-78
2023/07/24 06:13:41;;;;;;;5.70;4.60;;;;;;;23.42;75.81;98415.16;273679;1269;22400;-79
2023/07/24 06:19:43;;;;;;;6.70;4.80;;;;;;;23.65;75.88;98412.45;273415;1269;23476;-78
2023/07/24 06:25:44;;;;;;;7.50;5.10;;;;;;;23.88;75.25;98410.31;273586;1258;22398;-79
2023/07/24 06:31:46;;;;;;;7.90;4.80;;;;;;;24.02;74.78;98413.21;273733;1263;22501;-79
2023/07/24 06:37:48;;;;;;;7.50;4.70;;;;;;;24.01;75.38;98410.89;273778;1262;22395;-79
2023/07/24 06:43:49;;;;;;;9.70;4.90;;;;;;;24.04;75.49;98408.73;273647;1268;23871;-79
2023/07/24 06:49:51;;;;;;;7.30;5.40;;;;;;;24.14;73.81;98405.05;273730;1267;22384;-79
2023/07/24 06:55:54;;;;;;;7.90;5.00;;;;;;;24.42;73.02;98411.00;273841;1253;22406;-79
2023/07/24 07:02:34;;;;;;;;;;;;;;;;;;;;;
2023/07/24 07:10:07;;;;;;;5.90;4.50;;;;;;;25.41;70.91;98412.30;273316;1268;22450;-79
2023/07/24 07:17:08;;;;;;;8.00;4.30;;;;;;;25.79;68.31;98406.48;273374;1267;24621;-80
2023/07/24 07:23:10;;;;;;;5.80;4.70;;;;;;;26.10;67.09;98402.60;273747;1269;22415;-79
2023/07/24 07:29:11;;;;;;;6.00;4.50;;;;;;;26.55;65.91;98404.90;272528;1263;22383;-79
2023/07/24 07:35:13;;;;;;;7.60;4.70;;;;;;;26.58;64.70;98408.05;273721;1260;23031;-80
2023/07/24 07:41:14;;;;;;;7.40;5.00;;;;;;;26.69;64.16;98408.08;273596;1268;22865;-81
2023/07/24 07:47:16;;;;;;;5.70;4.70;;;;;;;26.90;63.32;98397.27;273285;1268;23415;-80
2023/07/24 07:53:34;;;;;;;8.40;5.00;;;;;;;27.05;61.59;98389.53;273400;1269;22258;-80
2023/07/24 07:59:42;;;;;;;6.70;4.70;;;;;;;27.41;59.84;98386.56;273190;1256;22167;-76
2023/07/24 08:05:46;;;;;;;8.40;5.30;;;;;;;27.77;58.75;98382.55;273352;1269;22537;-80
2023/07/24 08:11:48;;;;;;;6.60;4.60;;;;;;;28.08;57.20;98377.02;273726;1258;22374;-78
2023/07/24 08:17:57;;;;;;;9.50;4.70;;;;;;;28.25;57.32;98370.65;273490;1264;22194;-82
2023/07/24 08:23:59;;;;;;;5.80;4.90;;;;;;;28.45;57.10;98368.03;273768;1268;22405;-77
2023/07/24 08:30:10;;;;;;;6.50;4.40;;;;;;;28.58;56.21;98363.92;273787;1265;22230;-78
2023/07/24 08:36:15;;;;;;;5.70;4.30;;;;;;;28.53;54.99;98367.30;273704;1257;22377;-78
2023/07/24 08:42:16;;;;;;;11.80;4.70;;;;;;;28.48;53.95;98368.98;272994;1268;23151;-78
2023/07/24 08:48:21;;;;;;;6.90;5.30;;;;;;;28.38;53.51;98362.59;273217;1267;23746;-80
2023/07/24 08:54:24;;;;;;;8.90;5.50;;;;;;;28.37;53.22;98355.94;270802;1267;22181;-80
2023/07/24 09:00:40;;;;;;;6.20;4.70;;;;;;;28.32;52.97;98345.29;272486;1268;22644;-79
2023/07/24 09:06:45;;;;;;;5.00;4.00;;;;;;;28.43;52.49;98339.98;273129;1269;22428;-81
2023/07/24 09:12:47;;;;;;;8.20;5.00;;;;;;;28.60;51.73;98336.83;273453;1266;22528;-80
2023/07/24 09:18:51;;;;;;;6.70;4.50;;;;;;;28.74;51.47;98346.41;273579;1269;22417;-79
2023/07/24 09:25:11;;;;;;;6.80;5.10;;;;;;;28.91;50.59;98347.83;273631;1269;22390;-78
2023/07/24 09:38:20;;;;;;;9.40;5.20;;;;;;;28.58;50.47;98320.66;273458;1268;22507;-79
2023/07/24 09:44:25;;;;;;;7.50;4.90;;;;;;;28.52;50.11;98320.45;273318;1268;22245;-78
2023/07/24 09:50:36;;;;;;;7.30;5.40;;;;;;;28.61;49.63;98315.34;273738;1269;22476;-81
2023/07/24 09:56:38;;;;;;;7.80;5.00;;;;;;;28.88;49.37;98303.53;273612;1269;22211;-79
2023/07/24 10:02:39;;;;;;;7.80;5.40;;;;;;;28.91;48.74;98284.42;273639;1268;22374;-78
2023/07/24 10:08:42;;;;;;;9.50;6.00;;;;;;;28.76;49.21;98276.11;273865;1269;23354;-79
2023/07/24 10:14:45;;;;;;;7.10;5.60;;;;;;;28.52;47.99;98259.17;273888;1259;22205;-78
2023/07/24 10:20:47;;;;;;;9.40;6.10;;;;;;;28.31;47.52;98253.33;271256;1269;23171;-81
2023/07/24 10:26:49;;;;;;;9.60;5.60;;;;;;;28.12;47.49;98252.96;273765;1257;22385;-80
2023/07/24 10:32:51;;;;;;;8.50;6.20;;;;;;;28.06;47.91;98258.64;273905;1268;23384;-79
2023/07/24 10:39:52;;;;;;;8.00;6.20;;;;;;;28.13;48.61;98250.86;273683;1269;22486;-78
2023/07/24 10:45:55;;;;;;;8.30;5.90;;;;;;;28.26;48.28;98248.38;273669;1269;22369;-78
2023/07/24 10:52:06;;;;;;;7.50;6.20;;;;;;;28.03;49.12;98255.46;273861;1268;23100;-79
2023/07/24 10:58:21;;;;;;;9.40;7.00;;;;;;;27.58;49.21;98247.38;273083;1268;23129;-80
2023/07/24 11:04:23;;;;;;;11.80;7.20;;;;;;;27.24;48.99;98246.33;270581;1268;22532;-80
2023/07/24 11:10:25;;;;;;;10.90;7.20;;;;;;;27.05;49.19;98246.33;273500;1257;22471;-80
2023/07/24 11:16:30;;;;;;;13.70;7.40;;;;;;;26.96;49.43;98250.46;273718;1269;22475;-80
2023/07/24 11:22:31;;;;;;;13.30;7.00;;;;;;;26.84;49.97;98250.14;273901;1268;22511;-81
2023/07/24 11:28:39;;;;;;;11.70;7.20;;;;;;;26.74;50.41;98244.32;273840;1264;22358;-80
2023/07/24 11:34:41;;;;;;;8.70;6.10;;;;;;;26.70;51.20;98239.65;273005;1269;22386;-80
2023/07/24 11:41:03;;;;;;;12.10;6.50;;;;;;;26.97;51.88;98230.71;273699;1269;23362;-80
2023/07/24 11:47:06;;;;;;;8.60;6.40;;;;;;;27.19;51.94;98227.54;273840;1269;22180;-79
2023/07/24 11:53:25;;;;;;;10.40;6.60;;;;;;;27.19;51.68;98219.11;273785;1269;22199;-80
2023/07/24 11:59:28;;;;;;;8.50;6.50;;;;;;;27.30;51.97;98212.52;273827;1265;22346;-80
2023/07/24 12:05:41;;;;;;;10.20;6.90;;;;;;;27.80;52.61;98201.77;273846;1258;22261;-81
2023/07/24 12:11:43;;;;;;;10.50;7.40;;;;;;;28.16;51.66;98190.25;273840;1269;23697;-81
2023/07/24 12:17:45;;;;;;;9.70;6.90;;;;;;;28.23;51.63;98184.25;273820;1256;22261;-80
2023/07/24 12:23:53;;;;;;;8.50;6.40;;;;;;;28.19;51.98;98168.81;273805;1269;22371;-82
2023/07/24 12:29:55;;;;;;;10.50;7.20;;;;;;;28.16;51.58;98155.83;273690;1264;22265;-80
2023/07/24 12:35:57;;;;;;;7.70;6.10;;;;;;;28.11;50.46;98138.23;273789;1269;22595;-80
2023/07/24 12:41:59;;;;;;;9.90;6.70;;;;;;;28.02;50.03;98123.45;272416;1269;23837;-83
2023/07/24 12:48:01;;;;;;;12.40;6.90;;;;;;;27.86;50.24;98120.33;271512;1268;23077;-81
2023/07/24 12:54:05;;;;;;;11.70;6.40;;;;;;;27.71;50.09;98112.55;273788;1258;22387;-81
2023/07/24 13:00:08;;;;;;;10.90;7.00;;;;;;;27.61;49.91;98098.23;273860;1269;22129;-81
2023/07/24 13:06:29;;;;;;;9.30;6.60;;;;;;;27.59;50.36;98091.84;273370;1268;22402;-82
2023/07/24 13:12:56;;;;;;;;;;;;;;;;;;;;;
2023/07/24 13:19:25;;;;;;;8.60;6.40;;;;;;;27.80;50.74;98073.73;273482;1269;22415;-82
2023/07/24 13:25:30;;;;;;;10.80;7.10;;;;;;;27.98;50.50;98056.04;273580;1266;22493;-81
2023/07/24 13:31:34;;;;;;;9.40;6.80;;;;;;;28.16;49.73;98036.05;273643;1262;22971;-79
2023/07/24 13:37:49;;;;;;;11.10;7.60;;;;;;;28.23;49.33;98023.96;273481;1252;22967;-80
2023/07/24 13:43:53;;;;;;;10.50;7.10;;;;;;;28.35;49.02;98009.55;273755;1259;22634;-79
2023/07/24 13:49:59;;;;;;;11.40;7.60;;;;;;;28.33;49.65;98007.05;273835;1268;23142;-79
2023/07/24 13:56:01;;;;;;;12.50;8.00;;;;;;;28.21;50.50;97999.88;273826;1269;22435;-79
2023/07/24 14:02:16;;;;;;;12.50;6.90;;;;;;;28.12;51.03;97983.54;273652;1269;22501;-80
2023/07/24 14:08:18;;;;;;;9.90;7.30;;;;;;;28.11;50.91;97962.98;273541;1267;22561;-80
2023/07/24 14:14:20;;;;;;;11.10;7.40;;;;;;;28.13;50.97;97950.84;273030;1268;22586;-79
2023/07/24 14:20:21;;;;;;;11.10;7.80;;;;;;;28.31;50.38;97945.40;270706;1256;22599;-80
2023/07/24 14:26:23;;;;;;;9.90;7.30;;;;;;;28.47;50.76;97942.10;271034;1269;22181;-80
2023/07/24 14:32:25;;;;;;;10.40;8.20;;;;;;;28.46;51.70;97938.36;273835;1269;22362;-80
2023/07/24 14:38:27;;;;;;;12.60;7.70;;;;;;;28.46;51.35;97936.58;273793;1269;22440;-80
2023/07/24 14:44:28;;;;;;;10.90;7.60;;;;;;;28.57;50.80;97927.78;273805;1255;22423;-81
2023/07/24 14:50:30;;;;;;;13.60;8.00;;;;;;;28.64;50.32;97918.27;273745;1269;22411;-80
2023/07/24 14:56:32;;;;;;;14.60;7.80;;;;;;;28.63;49.98;97919.45;273782;1270;22436;-81
2023/07/24 15:02:34;;;;;;;10.00;7.30;;;;;;;28.56;49.70;97902.49;273718;1268;22453;-79
2023/07/24 15:08:36;;;;;;;19.60;8.20;;;;;;;28.45;49.95;97887.30;273601;1269;22379;-81
2023/07/24 15:14:37;;;;;;;18.00;11.20;;;;;;;28.37;50.46;97872.40;273324;1269;341793;-80
2023/07/24 15:20:39;;;;;;;12.70;9.50;;;;;;;28.26;50.75;97855.42;273223;1266;24125;-81
2023/07/24 15:26:44;;;;;;;13.30;10.10;;;;;;;28.19;51.13;97848.10;273735;1266;22397;-81
2023/07/24 15:32:46;;;;;;;16.50;9.50;;;;;;;28.13;51.44;97834.98;273656;1269;22174;-81
2023/07/24 15:38:47;;;;;;;34.90;27.50;;;;;;;28.09;51.53;97805.14;271167;1257;22543;-79
2023/07/24 15:44:50;;;;;;;16.40;12.60;;;;;;;28.09;52.09;97798.65;272302;1269;23389;-79
2023/07/24 15:50:51;;;;;;;12.50;9.10;;;;;;;27.98;52.79;97799.84;273422;1269;23581;-79
2023/07/24 15:56:53;;;;;;;11.10;8.10;;;;;;;27.76;53.47;97792.52;271685;1269;22614;-79
2023/07/24 16:02:55;;;;;;;11.40;8.20;;;;;;;27.55;54.35;97786.06;273406;1269;22430;-80
2023/07/24 16:09:00;;;;;;;18.40;8.50;;;;;;;27.42;55.05;97782.49;271703;1269;22427;-79
2023/07/24 16:15:02;;;;;;;17.50;10.90;;;;;;;27.33;55.56;97782.58;273757;1269;22188;-79
2023/07/24 16:21:03;;;;;;;17.00;11.90;;;;;;;27.27;56.68;97782.65;272928;1269;22142;-79
2023/07/24 16:27:06;;;;;;;27.70;14.30;;;;;;;27.17;56.86;97779.64;273539;1268;22563;-79
2023/07/24 16:33:09;;;;;;;28.60;17.30;;;;;;;27.08;56.88;97777.21;273625;1269;22476;-79
2023/07/24 16:39:11;;;;;;;33.60;19.00;;;;;;;26.99;57.17;97769.36;273503;1259;22447;-80
2023/07/24 16:45:22;;;;;;;31.10;18.90;;;;;;;26.86;57.27;97757.40;273691;1269;22425;-79
2023/07/24 16:51:32;;;;;;;25.70;15.70;;;;;;;26.75;57.25;97750.13;273755;1269;22467;-80
2023/07/24 16:58:03;;;;;;;26.00;16.00;;;;;;;26.65;57.62;97742.77;273450;1269;22336;-79
2023/07/24 17:04:04;;;;;;;24.70;15.70;;;;;;;26.54;58.02;97741.23;273634;1268;22554;-79
2023/07/24 17:10:09;;;;;;;21.70;15.10;;;;;;;26.41;58.67;97738.34;273684;1269;22369;-80
2023/07/24 17:16:10;;;;;;;17.90;12.10;;;;;;;26.23;59.33;97743.95;273693;1269;23540;-78
2023/07/24 17:22:12;;;;;;;16.10;8.00;;;;;;;25.85;59.60;97793.94;273715;1270;22406;-80
2023/07/24 17:28:13;;;;;;;15.00;7.40;;;;;;;25.55;58.20;97788.02;273152;1269;22195;-80
2023/07/24 17:34:15;;;;;;;12.10;7.60;;;;;;;25.07;58.15;97813.16;271495;1265;22405;-80
2023/07/24 17:40:17;;;;;;;11.80;7.10;;;;;;;24.49;59.80;97869.62;271110;1269;24082;-78
2023/07/24 17:46:19;;;;;;;13.40;7.70;;;;;;;23.64;63.05;97967.58;272409;1269;22390;-78
2023/07/24 17:52:20;;;;;;;15.80;8.50;;;;;;;22.65;65.18;97992.72;273021;1269;22915;-81
2023/07/24 17:58:22;;;;;;;13.80;8.60;;;;;;;21.74;68.24;97963.02;273599;1269;22419;-78
2023/07/24 18:04:27;;;;;;;13.60;7.70;;;;;;;21.17;73.02;98033.95;273343;1270;22544;-81
2023/07/24 18:10:30;;;;;;;19.10;9.30;;;;;;;20.98;75.52;98011.88;273732;1267;22211;-80
2023/07/24 18:16:32;;;;;;;16.80;8.50;;;;;;;20.64;78.30;98004.89;273348;1269;22271;-80
2023/07/24 18:22:37;;;;;;;23.20;10.60;;;;;;;20.40;80.18;98028.30;273550;1269;22500;-81
2023/07/24 18:28:42;;;;;;;20.70;10.10;;;;;;;20.36;82.38;98054.45;273466;1269;22482;-78
2023/07/24 18:34:44;;;;;;;18.30;11.00;;;;;;;20.39;83.51;98091.85;273826;1257;22599;-78
2023/07/24 18:40:50;;;;;;;17.10;9.80;;;;;;;20.37;84.04;98102.11;273690;1269;22368;-79
2023/07/24 18:47:11;;;;;;;25.70;13.20;;;;;;;20.33;85.03;98096.66;273756;1270;22395;-79
2023/07/24 18:53:54;;;;;;;22.00;12.10;;;;;;;20.18;85.63;98029.30;273687;1269;22487;-80
2023/07/24 18:59:55;;;;;;;20.10;10.70;;;;;;;19.95;86.50;97973.94;273835;1269;22242;-80
2023/07/24 19:05:57;;;;;;;15.20;9.90;;;;;;;19.77;88.61;97966.04;273585;1270;22383;-79
2023/07/24 19:12:02;;;;;;;15.20;9.90;;;;;;;19.76;91.08;97953.30;266172;1269;10002551;-80
2023/07/24 19:18:04;;;;;;;18.20;9.90;;;;;;;19.63;92.17;97919.28;273627;1258;22354;-78
2023/07/24 19:24:46;;;;;;;14.10;8.20;;;;;;;19.55;92.94;97898.11;273608;1270;23064;-77
2023/07/24 19:30:56;;;;;;;15.90;8.30;;;;;;;19.55;94.33;97910.67;273690;1268;22642;-79
2023/07/24 19:37:01;;;;;;;12.70;8.10;;;;;;;19.56;94.80;97879.70;273724;1270;22957;-79
2023/07/24 19:43:04;;;;;;;16.10;8.30;;;;;;;19.41;96.09;97874.20;273682;1270;22479;-78
2023/07/24 19:49:06;;;;;;;14.00;8.40;;;;;;;19.40;96.79;97881.77;273569;1269;22375;-78
2023/07/24 19:55:08;;;;;;;13.60;7.90;;;;;;;19.42;97.41;97907.06;273725;1270;23444;-78
2023/07/24 20:01:10;;;;;;;12.80;8.10;;;;;;;19.39;97.34;97910.77;273716;1256;22408;-78
2023/07/24 20:07:12;;;;;;;13.50;7.90;;;;;;;19.42;98.18;97923.19;273582;1269;22869;-79
2023/07/24 20:13:43;;;;;;;12.00;8.50;;;;;;;19.35;98.04;97988.00;273503;1269;22591;-80
2023/07/24 20:20:06;;;;;;;12.60;7.00;;;;;;;19.26;99.35;97998.61;273629;1269;22295;-82
2023/07/24 20:26:07;;;;;;;14.00;6.60;;;;;;;19.21;100.00;97941.30;273683;1269;22434;-80
2023/07/24 20:32:13;;;;;;;11.30;6.70;;;;;;;19.16;100.00;97869.15;273683;1270;22382;-83
2023/07/24 20:38:26;;;;;;;7.50;4.80;;;;;;;19.10;100.00;97819.20;272846;1270;22549;-81
2023/07/24 20:44:28;;;;;;;7.90;5.30;;;;;;;19.03;100.00;97805.00;272063;1260;22536;-80
2023/07/24 20:50:52;;;;;;;8.50;5.30;;;;;;;18.98;100.00;97814.73;273696;1268;22339;-79
2023/07/24 20:57:20;;;;;;;6.80;4.10;;;;;;;18.88;100.00;97805.86;273621;1270;22430;-79
2023/07/24 21:03:22;;;;;;;9.30;4.60;;;;;;;18.72;100.00;97796.73;273758;1269;22504;-80
2023/07/24 21:09:27;;;;;;;7.30;4.60;;;;;;;18.68;100.00;97800.17;273766;1254;22450;-80
2023/07/24 21:15:51;;;;;;;;;;;;;;;;;;;;;
2023/07/24 21:22:14;;;;;;;8.60;4.50;;;;;;;18.59;100.00;97796.16;273819;1257;22583;-80
2023/07/24 21:28:16;;;;;;;6.20;4.50;;;;;;;18.49;100.00;97791.02;273829;1257;22366;-80
2023/07/24 21:34:19;;;;;;;7.70;4.70;;;;;;;18.49;100.00;97793.79;273844;1256;22512;-80
2023/07/24 21:40:41;;;;;;;8.10;5.10;;;;;;;18.45;100.00;97792.69;273801;1269;22382;-79
2023/07/24 21:47:03;;;;;;;8.00;5.10;;;;;;;18.46;100.00;97794.30;273814;1269;22442;-79
2023/07/24 21:53:08;;;;;;;7.80;5.30;;;;;;;18.44;100.00;97804.35;273800;1268;22241;-79
2023/07/24 21:59:31;;;;;;;9.50;5.60;;;;;;;18.45;100.00;97794.54;273778;1269;22468;-80
2023/07/24 22:05:33;;;;;;;11.00;5.60;;;;;;;18.50;100.00;97812.39;273852;1267;22431;-81
2023/07/24 22:11:42;;;;;;;12.70;6.40;;;;;;;18.46;100.00;97799.23;273677;1270;22474;-80
2023/07/24 22:18:04;;;;;;;10.50;6.80;;;;;;;18.47;100.00;97774.94;273769;1266;22466;-80
2023/07/24 22:24:06;;;;;;;8.90;6.50;;;;;;;18.45;100.00;97745.59;273700;1267;22354;-80
2023/07/24 22:30:08;;;;;;;9.70;6.00;;;;;;;18.41;100.00;97739.58;273906;1257;23407;-80
2023/07/24 22:36:10;;;;;;;10.30;6.50;;;;;;;18.39;100.00;97746.30;273807;1269;22422;-80
2023/07/24 22:42:32;;;;;;;10.70;6.20;;;;;;;18.33;100.00;97746.66;273749;1269;22466;-80
2023/07/24 22:49:15;;;;;;;11.70;6.10;;;;;;;18.33;100.00;97765.84;273749;1269;22469;-80
2023/07/24 22:55:18;;;;;;;9.60;6.00;;;;;;;18.32;100.00;97765.80;273792;1269;22392;-80
2023/07/24 23:01:53;;;;;;;9.20;7.00;;;;;;;18.23;100.00;97782.43;273818;1264;23043;-79
2023/07/24 23:07:56;;;;;;;7.90;5.60;;;;;;;18.13;100.00;97787.34;273765;1269;23288;-80
2023/07/24 23:13:58;;;;;;;10.60;6.40;;;;;;;17.98;100.00;97795.59;273573;1269;22398;-80
2023/07/24 23:20:09;;;;;;;10.10;6.30;;;;;;;17.92;100.00;97796.60;273817;1269;22429;-80
2023/07/24 23:26:13;;;;;;;8.60;4.90;;;;;;;17.91;100.00;97802.89;273624;1269;22391;-80
2023/07/24 23:32:17;;;;;;;10.90;5.90;;;;;;;17.84;100.00;97807.34;273617;1269;22357;-80
2023/07/24 23:38:19;;;;;;;9.00;6.40;;;;;;;17.76;100.00;97792.86;273846;1269;22165;-80
2023/07/24 23:44:21;;;;;;;9.10;6.00;;;;;;;17.69;100.00;97793.88;273745;1269;22546;-80
2023/07/24 23:50:23;;;;;;;10.00;6.60;;;;;;;17.66;100.00;97800.66;272186;1256;24366;-80
2023/07/24 23:56:36;;;;;;;7.50;5.50;;;;;;;17.63;100.00;97795.16;271013;1268;22544;-80
